My Meet Scores
Emmalyn Lekki, Gym Kinetics Gymnastics - MyMeetScores.com
Top100 | Top Teams | Upcoming Meets | Completed Meets | Latest | Add Scores | Help| Support | Bookmark and Share

Emmalyn Lekki, Gym Kinetics Gymnastics
Personal Bests
LevelVault BarsBeamFloorAA
39.6509.800 9.3509.82538.575
49.2259.200 9.6759.65037.000
59.6009.550 9.6509.70038.150
89.2509.650 9.7009.52537.450
Scores on America's Top 100as of 10.21.2020
Year Level Vault Bars Beam Floor AA
2019 59.700
2020 89.700

Click here to view our exclusive Top 100 Collection
Meet Scores
Date Meet Team Session Level Division Vault Bars Beam Floor AA
2020-03-06 2020 Flip'r Invitational Gym Kinetics Gymnastics 6 8 JR A 0.000 11 9.650 2 8.875 8T 9.475 4T 28.000 11
2020-02-21 Kinetic Classic Gym Kinetics Gymnastics 04 8 Younger 9.250 4T 9.275 11T 9.400 1 9.525 1 37.450 1
2020-01-31 Chow's Challenge Gym Kinetics Gymnastics A2 8 JR 9.175 2 9.225 2 9.700 1 9.150 3T 37.250 1
2020-01-17 2020 Bravo Classic Gym Kinetics Gymnastics 6A 8 Child 9.050 7 9.100 10 9.300 4T 9.350 5T 36.800 4
2020-01-10 Leenda's Island Adventure Gym Kinetics Gymnastics PG3 8 11 & Under 8.975 6 9.225 4 9.225 2 9.225 5T 36.650 2T
2019-12-20 Aspire Classic - 2019 Gym Kinetics Gymnastics 2A 8 Younger 8.850 6T 8.800 7 9.550 1 9.025 3 36.225 2
2019-12-07 Home for the Holidays 2019 Gym Kinetics Gymnastics 3 8 Younger 8.750 8 9.025 8 8.700 8 9.025 8 35.500 8
2019-03-22 Illinois Gymnastics State Championships Gym Kinetics Gymnastics 1 5 JR A 9.600 2T 9.500 4T 9.475 4 9.575 1T 38.150 2
2019-03-01 NGCD Academy's 2019 Flip'r Invitational Gym Kinetics Gymnastics 11 5 Child 9.375 1 9.550 2 9.450 2 9.575 1 37.950 1
2019-02-23 Kinetic Classic 2019 Gym Kinetics Gymnastics 1 5 Younger 8.800 3T 9.225 4 9.650 2 9.400 1 37.075 1
2019-02-08 Midwest Twisters Harley Meet Womens Gym Kinetics Gymnastics O11 5 9 & under 9.225 1 9.550 1 9.050 1 9.325 1 37.150 1
2019-01-18 2019 Bravo Classic Gym Kinetics Gymnastics 2A 5 Child 9.225 2 9.250 7 9.475 4 9.700 2 37.650 2
2019-01-11 St Jude Benefit Meet Gym Kinetics Gymnastics 8A 5 Jr A 9.400 1T 9.300 1 9.500 2 9.525 2 37.725 1
2018-12-14 2018 Aspire Classic Gym Kinetics Gymnastics 8A 5 Younger 9.400 4T 9.375 3 9.000 15 9.250 4 37.025 4
2018-03-08 Level 4 & 5 State Gym Kinetics Gymnastics All 4 Ch A 9.225 4T 9.200 9 9.175 13 8.950 10T 36.550 5
2018-02-23 Kinetic Classic Gym Kinetics Gymnastics 7 4 Younger 8.850 13 9.050 25T 9.675 3 9.300 13T 36.875 5
2018-02-09 Arizona Sunrays Classic Rock Invitational Gym Kinetics Gymnastics W11 4 JrA 8.600 5 9.100 3 9.650 1 9.650 1 37.000 1
2017-12-15 2017 Aspire Classic Gym Kinetics Gymnastics 9A 3 Younger 9.600 1 9.800 1 9.350 2 9.825 1 38.575 1
2017-03-30 2017 Illinois Level 3 & 5 State Gym Kinetics Gymnastics All 3 Ch A 9.650 2T 9.750 3 8.675 18T 9.625 1 37.700 4
2017-02-24 Kinetic Classic Gym Kinetics Gymnastics 4,5,6,7 3 All Ages 9.300 22T 9.300 18T 8.725 62 9.225 25T 36.550 26T
2017-02-09 Hal's Harley-Davidson Invite Gym Kinetics Gymnastics S11 3 7 under 9.400 2 9.375 2 8.950 2T 9.250 2T 36.975 1
Get your scores on
a t-shirt, pin, or hoodie

www.lazysuits.com